createdAt,value
2022-08-11T00:01:28.728Z,50.10
2022-08-11T00:04:01.391Z,50.20
2022-08-11T00:06:31.741Z,50.90
2022-08-11T00:09:00.668Z,51.00
2022-08-11T00:12:00.197Z,51.20
2022-08-11T00:14:37.336Z,51.20
2022-08-11T00:17:06.596Z,50.90
2022-08-11T00:20:14.101Z,51.20
2022-08-11T00:22:29.674Z,51.40
2022-08-11T00:25:02.176Z,51.40
2022-08-11T00:27:37.018Z,51.20
2022-08-11T00:30:06.689Z,51.10
2022-08-11T00:32:34.456Z,51.30
2022-08-11T00:35:55.474Z,51.80
2022-08-11T00:37:52.544Z,52.20
2022-08-11T00:40:28.186Z,52.40
2022-08-11T00:43:20.329Z,52.30
2022-08-11T00:46:08.543Z,52.30
2022-08-11T00:49:12.927Z,52.20
2022-08-11T00:52:05.628Z,52.10
2022-08-11T00:54:57.178Z,52.10
2022-08-11T00:58:02.583Z,52.00
2022-08-11T01:00:42.626Z,52.10
2022-08-11T01:03:27.167Z,52.20
2022-08-11T01:06:04.517Z,52.30
2022-08-11T01:08:46.651Z,52.00
2022-08-11T01:11:38.980Z,52.10
2022-08-11T01:14:40.278Z,52.30
2022-08-11T01:17:44.355Z,52.50
2022-08-11T01:20:49.542Z,52.50
2022-08-11T01:23:47.616Z,52.70
2022-08-11T01:26:29.368Z,53.10
2022-08-11T01:29:05.143Z,52.90
2022-08-11T01:32:02.677Z,53.10
2022-08-11T01:34:48.534Z,53.20
2022-08-11T01:37:42.689Z,53.20
2022-08-11T01:40:42.631Z,53.50
2022-08-11T01:44:11.342Z,53.40
2022-08-11T01:47:02.491Z,53.30
2022-08-11T01:50:09.936Z,53.60
2022-08-11T01:52:45.806Z,53.80
2022-08-11T01:55:24.020Z,54.30
2022-08-11T01:57:56.500Z,54.20
2022-08-11T02:00:28.846Z,54.10
2022-08-11T02:03:29.444Z,54.40
2022-08-11T02:06:54.774Z,54.50
2022-08-11T02:09:49.516Z,54.80
2022-08-11T02:12:27.638Z,55.00
2022-08-11T02:15:20.943Z,55.20
2022-08-11T02:18:10.353Z,55.30
2022-08-11T02:21:06.300Z,55.40
2022-08-11T02:24:04.797Z,55.00
2022-08-11T02:26:45.894Z,54.90
2022-08-11T02:29:38.189Z,55.10
2022-08-11T02:32:31.150Z,55.10
2022-08-11T02:35:14.148Z,55.20
2022-08-11T02:37:52.739Z,55.10
2022-08-11T02:40:40.384Z,55.10
2022-08-11T02:43:25.903Z,55.30
2022-08-11T02:46:18.920Z,55.50
2022-08-11T02:49:22.152Z,55.60
2022-08-11T02:52:06.093Z,55.50
2022-08-11T02:54:56.852Z,55.80
2022-08-11T02:57:39.027Z,55.90
2022-08-11T03:00:17.690Z,56.10
2022-08-11T03:03:17.224Z,56.30
2022-08-11T03:05:55.734Z,56.50
2022-08-11T03:08:51.813Z,56.60
2022-08-11T03:11:57.436Z,56.50
2022-08-11T03:15:15.524Z,56.40
2022-08-11T03:18:03.971Z,56.70
2022-08-11T03:20:42.622Z,56.90
2022-08-11T03:23:19.904Z,56.90
2022-08-11T03:26:05.556Z,56.60
2022-08-11T03:28:53.379Z,56.80
2022-08-11T03:31:32.315Z,57.40
2022-08-11T03:34:12.638Z,57.50
2022-08-11T03:37:15.052Z,57.60
2022-08-11T03:39:55.519Z,57.80
2022-08-11T03:42:41.855Z,57.80
2022-08-11T03:45:08.531Z,58.20
2022-08-11T03:47:55.522Z,58.40
2022-08-11T03:50:55.656Z,58.50
2022-08-11T03:53:34.478Z,58.60
2022-08-11T03:56:29.442Z,59.00
2022-08-11T03:59:34.852Z,58.90
2022-08-11T04:02:19.315Z,58.90
2022-08-11T04:05:16.971Z,59.10
2022-08-11T04:08:05.949Z,59.40
2022-08-11T04:11:10.188Z,59.40
2022-08-11T04:14:32.574Z,59.40
2022-08-11T04:17:19.673Z,59.40
2022-08-11T04:20:19.003Z,59.70
2022-08-11T04:24:36.438Z,59.90
2022-08-11T04:26:46.449Z,59.50
2022-08-11T04:30:05.901Z,59.40
2022-08-11T04:33:11.443Z,60.00
2022-08-11T04:35:59.520Z,60.30
2022-08-11T04:38:58.666Z,60.30
2022-08-11T04:42:29.582Z,61.20
2022-08-11T04:44:58.288Z,61.90
2022-08-11T04:48:03.616Z,62.60
2022-08-11T04:51:41.682Z,62.60
2022-08-11T04:54:38.844Z,63.00
2022-08-11T04:57:36.008Z,62.90
2022-08-11T05:00:25.563Z,63.20
2022-08-11T05:03:10.106Z,63.30
2022-08-11T05:05:57.969Z,62.60
2022-08-11T05:08:49.651Z,61.40
2022-08-11T05:11:22.443Z,60.70
2022-08-11T05:14:38.941Z,61.00
2022-08-11T05:17:35.450Z,61.40
2022-08-11T05:20:20.893Z,60.50
2022-08-11T05:23:11.040Z,60.10
2022-08-11T05:26:42.954Z,60.20
2022-08-11T05:29:19.969Z,60.50
2022-08-11T05:32:17.466Z,60.60
2022-08-11T05:34:54.033Z,60.40
2022-08-11T05:37:34.386Z,60.80
2022-08-11T05:40:31.372Z,61.20
2022-08-11T05:43:23.461Z,60.80
2022-08-11T05:46:38.295Z,60.40
2022-08-11T05:49:28.423Z,60.40
2022-08-11T05:52:17.963Z,60.60
2022-08-11T05:55:06.962Z,60.40
2022-08-11T05:57:44.077Z,60.50
2022-08-11T06:00:18.404Z,60.50
2022-08-11T06:02:51.390Z,60.50
2022-08-11T06:05:19.522Z,60.20
2022-08-11T06:07:50.139Z,60.30
2022-08-11T06:10:35.566Z,60.00
2022-08-11T06:13:04.946Z,60.00
2022-08-11T06:15:34.696Z,60.00
2022-08-11T06:18:02.909Z,59.50
2022-08-11T06:20:36.811Z,59.60
2022-08-11T06:23:06.552Z,59.00
2022-08-11T06:25:35.751Z,58.90
2022-08-11T06:28:07.492Z,58.60
2022-08-11T06:30:40.705Z,58.60
2022-08-11T06:33:14.490Z,58.40
2022-08-11T06:35:53.183Z,58.00
2022-08-11T06:38:38.306Z,58.00
2022-08-11T06:41:30.772Z,57.80
2022-08-11T06:44:13.527Z,57.80
2022-08-11T06:46:51.053Z,57.70
2022-08-11T06:49:42.544Z,57.00
2022-08-11T06:52:34.943Z,56.90
2022-08-11T06:55:57.536Z,56.60
2022-08-11T06:58:41.173Z,56.70
2022-08-11T07:01:13.461Z,56.70
2022-08-11T07:03:58.312Z,55.70
2022-08-11T07:07:11.160Z,55.60
2022-08-11T07:10:31.757Z,55.10
2022-08-11T07:13:39.354Z,54.70
2022-08-11T07:16:13.067Z,54.50
2022-08-11T07:19:00.946Z,54.40
2022-08-11T07:22:02.914Z,53.80
2022-08-11T07:25:21.421Z,53.50
2022-08-11T07:28:14.999Z,53.40
2022-08-11T07:30:43.345Z,53.40
2022-08-11T07:33:11.676Z,53.20
2022-08-11T07:36:00.932Z,53.00
2022-08-11T07:38:47.185Z,53.10
2022-08-11T07:41:16.117Z,52.70
2022-08-11T07:43:49.519Z,52.30
2022-08-11T07:46:36.766Z,52.40
2022-08-11T07:49:24.186Z,51.40
2022-08-11T07:52:10.153Z,51.80
2022-08-11T07:54:38.120Z,51.30
2022-08-11T07:57:49.398Z,51.30
2022-08-11T08:00:32.839Z,50.80
2022-08-11T08:03:19.945Z,50.10
2022-08-11T08:06:15.232Z,49.70
2022-08-11T08:09:13.829Z,50.10
2022-08-11T08:11:59.718Z,49.50
2022-08-11T08:14:45.331Z,48.90
2022-08-11T08:17:30.757Z,49.60
2022-08-11T08:19:57.763Z,48.90
2022-08-11T08:22:37.731Z,48.50
2022-08-11T08:25:07.485Z,48.90
2022-08-11T08:27:36.036Z,48.60
2022-08-11T08:30:24.467Z,48.40
2022-08-11T08:32:52.706Z,47.20
2022-08-11T08:35:20.386Z,47.40
2022-08-11T08:37:49.637Z,47.20
2022-08-11T08:40:16.518Z,47.80
2022-08-11T08:42:56.294Z,47.80
2022-08-11T08:45:24.634Z,46.40
2022-08-11T08:48:03.444Z,45.90
2022-08-11T08:50:52.872Z,46.50
2022-08-11T08:53:24.321Z,46.00
2022-08-11T08:55:52.716Z,45.40
2022-08-11T08:58:21.801Z,43.90
2022-08-11T09:00:52.096Z,44.10
2022-08-11T09:06:07.237Z,44.10
2022-08-11T09:08:35.138Z,44.60
2022-08-11T09:11:23.137Z,44.00
2022-08-11T09:14:06.594Z,44.50
2022-08-11T09:16:36.145Z,43.20
2022-08-11T09:19:03.876Z,43.20
2022-08-11T09:21:48.193Z,43.00
2022-08-11T09:24:36.943Z,42.30
2022-08-11T09:27:07.955Z,42.00
2022-08-11T09:29:37.633Z,42.30
2022-08-11T09:32:07.137Z,42.10
2022-08-11T09:34:36.635Z,42.90
2022-08-11T09:37:54.385Z,41.80
2022-08-11T09:40:31.487Z,41.20
2022-08-11T09:43:22.364Z,41.20
2022-08-11T09:45:52.365Z,40.60
2022-08-11T09:48:22.334Z,40.70
2022-08-11T09:50:52.318Z,40.60
2022-08-11T09:53:37.747Z,40.20
2022-08-11T09:56:34.904Z,40.30
2022-08-11T09:59:02.170Z,39.10
2022-08-11T10:01:33.152Z,40.10
2022-08-11T10:04:05.436Z,39.60
2022-08-11T10:06:54.486Z,39.80
2022-08-11T10:09:25.030Z,39.30
2022-08-11T10:11:58.798Z,39.10
2022-08-11T10:14:46.346Z,39.60
2022-08-11T10:17:14.859Z,39.10
2022-08-11T10:19:43.455Z,39.10
2022-08-11T10:22:28.936Z,38.70
2022-08-11T10:25:20.017Z,38.20
2022-08-11T10:28:28.662Z,37.60
2022-08-11T10:31:06.830Z,37.90
2022-08-11T10:33:59.681Z,37.90
2022-08-11T10:36:30.796Z,38.10
2022-08-11T10:38:59.507Z,37.90
2022-08-11T10:42:06.758Z,37.80
2022-08-11T10:44:39.793Z,37.80
2022-08-11T10:47:26.515Z,36.50
2022-08-11T10:50:12.556Z,36.50
2022-08-11T10:52:58.970Z,37.10
2022-08-11T10:55:44.958Z,37.40
2022-08-11T10:58:31.348Z,37.10
2022-08-11T11:01:00.596Z,35.70
2022-08-11T11:03:29.929Z,35.90
2022-08-11T11:06:27.608Z,37.30
2022-08-11T11:09:06.956Z,36.80
2022-08-11T11:12:04.106Z,35.90
2022-08-11T11:14:56.483Z,36.30
2022-08-11T11:17:53.467Z,36.60
2022-08-11T11:20:36.587Z,35.80
2022-08-11T11:23:13.830Z,36.20
2022-08-11T11:25:40.495Z,35.00
2022-08-11T11:28:28.132Z,35.10
2022-08-11T11:31:07.996Z,35.00
2022-08-11T11:34:12.247Z,35.00
2022-08-11T11:36:50.509Z,35.00
2022-08-11T11:39:23.057Z,35.20
2022-08-11T11:41:53.535Z,35.40
2022-08-11T11:44:25.522Z,35.00
2022-08-11T11:46:53.304Z,34.80
2022-08-11T11:51:57.786Z,34.70
2022-08-11T11:54:34.213Z,34.30
2022-08-11T11:57:21.755Z,33.80
2022-08-11T12:00:11.129Z,34.50
2022-08-11T12:02:40.070Z,34.70
2022-08-11T12:05:09.438Z,33.90
2022-08-11T12:08:05.066Z,33.50
2022-08-11T12:11:10.980Z,33.70
2022-08-11T12:13:41.323Z,33.40
2022-08-11T12:16:34.190Z,33.70
2022-08-11T12:19:01.473Z,33.60
2022-08-11T12:21:29.375Z,33.40
2022-08-11T12:24:17.240Z,34.10
2022-08-11T12:27:16.184Z,34.00
2022-08-11T12:29:51.419Z,34.00
2022-08-11T12:32:23.144Z,33.20
2022-08-11T12:34:50.472Z,33.00
2022-08-11T12:37:30.055Z,32.90
2022-08-11T12:40:43.030Z,33.60
2022-08-11T12:43:38.936Z,34.20
2022-08-11T12:46:13.981Z,33.70
2022-08-11T12:49:05.507Z,33.60
2022-08-11T12:52:11.726Z,33.40
2022-08-11T12:54:47.225Z,32.90
2022-08-11T12:57:44.414Z,33.60
2022-08-11T13:00:30.357Z,33.00
2022-08-11T13:03:16.773Z,32.90
2022-08-11T13:05:45.820Z,33.00
2022-08-11T13:08:17.025Z,33.00
2022-08-11T13:11:04.121Z,32.30
2022-08-11T13:13:55.836Z,32.30
2022-08-11T13:16:20.547Z,32.30
2022-08-11T13:18:48.247Z,31.90
2022-08-11T13:21:20.174Z,32.40
2022-08-11T13:24:00.895Z,32.20
2022-08-11T13:26:43.340Z,31.80
2022-08-11T13:29:22.980Z,32.10
2022-08-11T13:31:50.681Z,32.20
2022-08-11T13:34:20.057Z,32.40
2022-08-11T13:36:52.110Z,32.00
2022-08-11T13:39:21.033Z,31.80
2022-08-11T13:41:50.946Z,32.30
2022-08-11T13:44:24.727Z,31.70
2022-08-11T13:47:01.620Z,32.00
2022-08-11T13:49:30.093Z,31.80
2022-08-11T13:51:59.053Z,31.70
2022-08-11T13:54:31.176Z,32.20
2022-08-11T13:57:01.960Z,32.20
2022-08-11T13:59:30.961Z,31.10
2022-08-11T14:02:22.110Z,31.30
2022-08-11T14:04:54.371Z,31.10
2022-08-11T14:07:23.985Z,31.40
2022-08-11T14:09:58.169Z,31.90
2022-08-11T14:12:47.637Z,31.70
2022-08-11T14:15:25.475Z,31.30
2022-08-11T14:18:01.600Z,32.30
2022-08-11T14:20:50.787Z,32.10
2022-08-11T14:23:20.416Z,32.90
2022-08-11T14:26:06.316Z,32.40
2022-08-11T14:28:41.510Z,31.90
2022-08-11T14:31:14.334Z,32.20
2022-08-11T14:33:59.642Z,31.90
2022-08-11T14:36:38.018Z,31.60
2022-08-11T14:39:17.139Z,31.30
2022-08-11T14:42:17.698Z,31.70
2022-08-11T14:45:03.708Z,31.70
2022-08-11T14:47:34.071Z,31.00
2022-08-11T14:50:10.000Z,31.20
2022-08-11T14:52:59.439Z,30.60
2022-08-11T14:55:48.271Z,30.60
2022-08-11T14:58:20.165Z,31.10
2022-08-11T15:00:49.731Z,31.70
2022-08-11T15:03:17.455Z,31.20
2022-08-11T15:05:58.351Z,31.70
2022-08-11T15:08:52.313Z,31.60
2022-08-11T15:11:41.385Z,31.30
2022-08-11T15:14:10.688Z,30.90
2022-08-11T15:16:59.463Z,31.50
2022-08-11T15:19:28.912Z,31.30
2022-08-11T15:22:24.888Z,31.60
2022-08-11T15:24:54.533Z,31.10
2022-08-11T15:27:41.356Z,31.00
2022-08-11T15:30:32.245Z,31.50
2022-08-11T15:33:20.586Z,31.50
2022-08-11T15:36:06.227Z,31.40
2022-08-11T15:38:36.300Z,31.60
2022-08-11T15:41:24.425Z,31.40
2022-08-11T15:44:13.045Z,30.90
2022-08-11T15:46:47.245Z,31.40
2022-08-11T15:49:22.390Z,31.90
2022-08-11T15:52:03.125Z,31.30
2022-08-11T15:54:33.634Z,31.50
2022-08-11T15:57:02.270Z,32.00
2022-08-11T15:59:52.916Z,31.00
2022-08-11T16:02:36.340Z,31.80
2022-08-11T16:05:08.282Z,31.30
2022-08-11T16:07:36.309Z,32.40
2022-08-11T16:10:18.826Z,32.00
2022-08-11T16:13:20.356Z,31.90
2022-08-11T16:16:15.069Z,31.90
2022-08-11T16:18:47.207Z,31.90
2022-08-11T16:21:34.069Z,31.90
2022-08-11T16:24:06.427Z,31.60
2022-08-11T16:27:08.861Z,30.90
2022-08-11T16:29:25.188Z,30.80
2022-08-11T16:32:14.399Z,31.70
2022-08-11T16:35:02.140Z,31.40
2022-08-11T16:37:49.848Z,31.30
2022-08-11T16:40:17.964Z,31.10
2022-08-11T16:43:10.599Z,31.30
2022-08-11T16:45:58.765Z,31.30
2022-08-11T16:48:35.829Z,32.00
2022-08-11T16:51:06.703Z,31.60
2022-08-11T16:53:59.821Z,31.30
2022-08-11T16:56:24.925Z,31.70
2022-08-11T16:59:14.549Z,31.70
2022-08-11T17:02:11.768Z,31.20
2022-08-11T17:05:03.085Z,31.00
2022-08-11T17:07:48.696Z,31.40
2022-08-11T17:10:55.667Z,31.50
2022-08-11T17:13:43.385Z,31.40
2022-08-11T17:16:12.708Z,31.20
2022-08-11T17:18:54.657Z,31.30
2022-08-11T17:21:57.287Z,31.60
2022-08-11T17:24:27.550Z,31.30
2022-08-11T17:26:58.566Z,31.10
2022-08-11T17:29:54.494Z,30.90
2022-08-11T17:33:05.726Z,31.30
2022-08-11T17:35:41.744Z,31.40
2022-08-11T17:38:17.932Z,31.40
2022-08-11T17:41:23.998Z,31.90
2022-08-11T17:44:11.946Z,31.90
2022-08-11T17:47:02.285Z,31.70
2022-08-11T17:49:37.226Z,31.50
2022-08-11T17:52:29.728Z,31.80
2022-08-11T17:55:51.572Z,31.70
2022-08-11T17:58:29.963Z,31.40
2022-08-11T18:01:02.003Z,31.50
2022-08-11T18:03:40.009Z,31.70
2022-08-11T18:06:12.591Z,31.40
2022-08-11T18:09:01.985Z,31.40
2022-08-11T18:12:09.939Z,31.60
2022-08-11T18:14:57.742Z,31.90
2022-08-11T18:17:43.238Z,32.00
2022-08-11T18:20:28.579Z,31.90
2022-08-11T18:23:16.217Z,32.20
2022-08-11T18:26:06.402Z,32.70
2022-08-11T18:29:01.990Z,32.30
2022-08-11T18:31:51.718Z,32.60
2022-08-11T18:34:43.425Z,32.60
2022-08-11T18:37:44.112Z,32.70
2022-08-11T18:40:40.211Z,32.70
2022-08-11T18:43:28.624Z,32.90
2022-08-11T18:46:23.212Z,32.80
2022-08-11T18:49:16.513Z,32.60
2022-08-11T18:52:07.909Z,32.40
2022-08-11T18:54:55.795Z,33.00
2022-08-11T18:57:49.528Z,33.50
2022-08-11T19:00:41.082Z,33.20
2022-08-11T19:03:28.429Z,33.00
2022-08-11T19:06:38.053Z,33.40
2022-08-11T19:09:30.433Z,33.30
2022-08-11T19:12:17.378Z,33.80
2022-08-11T19:15:04.763Z,34.40
2022-08-11T19:17:52.734Z,34.50
2022-08-11T19:20:43.810Z,34.00
2022-08-11T19:23:30.846Z,34.40
2022-08-11T19:26:17.587Z,34.30
2022-08-11T19:29:05.519Z,34.60
2022-08-11T19:31:51.997Z,34.80
2022-08-11T19:34:40.488Z,34.40
2022-08-11T19:37:27.091Z,34.60
2022-08-11T19:40:16.554Z,34.50
2022-08-11T19:43:02.663Z,34.30
2022-08-11T19:45:52.760Z,34.60
2022-08-11T19:48:41.654Z,35.20
2022-08-11T19:51:28.929Z,35.00
2022-08-11T19:54:16.004Z,35.10
2022-08-11T19:57:02.562Z,35.40
2022-08-11T19:59:49.513Z,35.70
2022-08-11T20:02:35.171Z,35.50
2022-08-11T20:05:21.152Z,35.00
2022-08-11T20:08:07.724Z,35.30
2022-08-11T20:10:55.730Z,35.50
2022-08-11T20:13:43.821Z,34.90
2022-08-11T20:16:32.295Z,34.90
2022-08-11T20:19:19.601Z,35.10
2022-08-11T20:22:14.728Z,35.10
2022-08-11T20:25:02.260Z,35.50
2022-08-11T20:27:50.246Z,35.00
2022-08-11T20:30:38.224Z,35.10
2022-08-11T20:33:24.226Z,35.80
2022-08-11T20:36:10.232Z,36.90
2022-08-11T20:38:56.817Z,37.60
2022-08-11T20:41:49.230Z,38.20
2022-08-11T20:44:45.564Z,38.60
2022-08-11T20:47:32.898Z,39.10
2022-08-11T20:50:38.935Z,40.10
2022-08-11T20:53:26.798Z,40.20
2022-08-11T20:56:17.209Z,39.80
2022-08-11T20:59:21.752Z,40.00
2022-08-11T21:02:10.528Z,40.10
2022-08-11T21:05:00.214Z,40.50
2022-08-11T21:07:56.856Z,40.50
2022-08-11T21:10:51.160Z,40.60
2022-08-11T21:13:39.429Z,40.70
2022-08-11T21:16:27.450Z,40.90
2022-08-11T21:20:01.416Z,41.80
2022-08-11T21:22:30.662Z,42.30
2022-08-11T21:25:18.126Z,42.40
2022-08-11T21:28:05.548Z,42.60
2022-08-11T21:30:52.023Z,42.70
2022-08-11T21:33:45.599Z,42.40
2022-08-11T21:36:31.735Z,42.10
2022-08-11T21:39:17.710Z,42.10
2022-08-11T21:42:09.170Z,42.50
2022-08-11T21:44:56.071Z,43.00
2022-08-11T21:47:44.276Z,43.60
2022-08-11T21:50:30.153Z,44.00
2022-08-11T21:53:18.016Z,44.20
2022-08-11T21:56:04.516Z,44.20
2022-08-11T21:58:51.040Z,44.50
2022-08-11T22:01:37.542Z,44.90
2022-08-11T22:04:23.890Z,44.80
2022-08-11T22:07:10.429Z,44.90
2022-08-11T22:09:56.063Z,45.20
2022-08-11T22:12:45.059Z,44.80
2022-08-11T22:15:31.077Z,44.90
2022-08-11T22:18:16.478Z,44.80
2022-08-11T22:21:03.079Z,45.30
2022-08-11T22:23:51.472Z,45.40
2022-08-11T22:26:37.527Z,45.20
2022-08-11T22:29:41.350Z,45.20
2022-08-11T22:32:35.853Z,45.40
2022-08-11T22:35:22.227Z,45.40
2022-08-11T22:38:08.747Z,45.20
2022-08-11T22:40:55.190Z,45.00
2022-08-11T22:43:40.689Z,45.50
2022-08-11T22:46:27.048Z,45.60
2022-08-11T22:49:14.052Z,45.60
2022-08-11T22:52:01.481Z,45.50
2022-08-11T22:54:49.054Z,45.60
2022-08-11T22:57:34.620Z,45.70
2022-08-11T23:00:20.156Z,45.60
2022-08-11T23:03:06.202Z,45.60
2022-08-11T23:05:56.646Z,45.60
2022-08-11T23:08:42.107Z,45.80
2022-08-11T23:11:27.465Z,46.00
2022-08-11T23:14:33.199Z,45.50
2022-08-11T23:17:19.317Z,45.60
2022-08-11T23:20:21.433Z,45.70
2022-08-11T23:23:11.071Z,45.90
2022-08-11T23:25:58.946Z,45.80
2022-08-11T23:28:46.469Z,45.80
2022-08-11T23:31:50.816Z,45.70
2022-08-11T23:35:37.320Z,45.70
2022-08-11T23:37:49.007Z,46.10
2022-08-11T23:40:34.351Z,46.20
2022-08-11T23:43:20.251Z,46.40
2022-08-11T23:48:55.426Z,46.40
2022-08-11T23:51:41.757Z,46.60
2022-08-11T23:54:28.268Z,46.60
2022-08-11T23:57:14.126Z,47.00
2022-08-11T23:59:59.573Z,47.40
